sensor_id;sensor_type;location;lat;lon;timestamp;P1;durP1;ratioP1;P2;durP2;ratioP2
56712;SDS011;42589;45.536;9.032;2022-11-09T00:02:00;26.77;;;17.52;;
56712;SDS011;42589;45.536;9.032;2022-11-09T00:05:01;26.25;;;17.02;;
56712;SDS011;42589;45.536;9.032;2022-11-09T00:08:06;27.40;;;17.20;;
56712;SDS011;42589;45.536;9.032;2022-11-09T00:11:07;25.30;;;16.33;;
56712;SDS011;42589;45.536;9.032;2022-11-09T00:14:15;24.25;;;16.63;;
56712;SDS011;42589;45.536;9.032;2022-11-09T00:17:16;22.60;;;15.77;;
56712;SDS011;42589;45.536;9.032;2022-11-09T00:20:17;18.90;;;15.27;;
56712;SDS011;42589;45.536;9.032;2022-11-09T00:23:17;21.17;;;15.18;;
56712;SDS011;42589;45.536;9.032;2022-11-09T00:26:18;23.70;;;15.95;;
56712;SDS011;42589;45.536;9.032;2022-11-09T00:29:19;27.17;;;15.95;;
56712;SDS011;42589;45.536;9.032;2022-11-09T00:32:20;26.90;;;15.43;;
56712;SDS011;42589;45.536;9.032;2022-11-09T00:35:20;22.45;;;15.18;;
56712;SDS011;42589;45.536;9.032;2022-11-09T00:38:22;21.85;;;16.00;;
56712;SDS011;42589;45.536;9.032;2022-11-09T00:41:22;24.55;;;15.98;;
56712;SDS011;42589;45.536;9.032;2022-11-09T00:44:23;20.08;;;15.18;;
56712;SDS011;42589;45.536;9.032;2022-11-09T00:47:24;23.98;;;14.65;;
56712;SDS011;42589;45.536;9.032;2022-11-09T00:50:25;23.00;;;15.10;;
56712;SDS011;42589;45.536;9.032;2022-11-09T00:53:37;25.58;;;15.73;;
56712;SDS011;42589;45.536;9.032;2022-11-09T00:56:38;21.33;;;15.40;;
56712;SDS011;42589;45.536;9.032;2022-11-09T00:59:39;25.38;;;16.08;;
56712;SDS011;42589;45.536;9.032;2022-11-09T01:02:40;24.48;;;15.40;;
56712;SDS011;42589;45.536;9.032;2022-11-09T01:05:41;24.90;;;15.60;;
56712;SDS011;42589;45.536;9.032;2022-11-09T01:08:41;22.35;;;15.27;;
56712;SDS011;42589;45.536;9.032;2022-11-09T01:11:43;20.23;;;15.00;;
56712;SDS011;42589;45.536;9.032;2022-11-09T01:14:44;25.92;;;16.17;;
56712;SDS011;42589;45.536;9.032;2022-11-09T01:17:45;22.23;;;15.75;;
56712;SDS011;42589;45.536;9.032;2022-11-09T01:20:47;21.58;;;14.43;;
56712;SDS011;42589;45.536;9.032;2022-11-09T01:23:47;22.42;;;15.07;;
56712;SDS011;42589;45.536;9.032;2022-11-09T01:26:48;21.35;;;15.25;;
56712;SDS011;42589;45.536;9.032;2022-11-09T01:29:52;23.63;;;15.70;;
56712;SDS011;42589;45.536;9.032;2022-11-09T01:32:53;24.75;;;16.17;;
56712;SDS011;42589;45.536;9.032;2022-11-09T01:35:54;24.48;;;15.70;;
56712;SDS011;42589;45.536;9.032;2022-11-09T01:38:54;22.15;;;15.73;;
56712;SDS011;42589;45.536;9.032;2022-11-09T01:41:55;21.42;;;14.55;;
56712;SDS011;42589;45.536;9.032;2022-11-09T01:48:16;21.05;;;15.35;;
56712;SDS011;42589;45.536;9.032;2022-11-09T01:51:20;20.50;;;14.90;;
56712;SDS011;42589;45.536;9.032;2022-11-09T01:54:24;22.77;;;14.82;;
56712;SDS011;42589;45.536;9.032;2022-11-09T01:57:26;21.83;;;14.43;;
56712;SDS011;42589;45.536;9.032;2022-11-09T02:00:27;21.10;;;14.07;;
56712;SDS011;42589;45.536;9.032;2022-11-09T02:03:29;22.23;;;13.90;;
56712;SDS011;42589;45.536;9.032;2022-11-09T02:06:32;22.67;;;14.10;;
56712;SDS011;42589;45.536;9.032;2022-11-09T02:12:40;18.92;;;12.70;;
56712;SDS011;42589;45.536;9.032;2022-11-09T02:15:40;18.10;;;12.38;;
56712;SDS011;42589;45.536;9.032;2022-11-09T02:18:59;19.98;;;12.63;;
56712;SDS011;42589;45.536;9.032;2022-11-09T02:22:05;20.10;;;12.98;;
56712;SDS011;42589;45.536;9.032;2022-11-09T02:25:06;19.25;;;12.07;;
56712;SDS011;42589;45.536;9.032;2022-11-09T02:28:07;20.58;;;12.27;;
56712;SDS011;42589;45.536;9.032;2022-11-09T02:31:09;20.52;;;12.43;;
56712;SDS011;42589;45.536;9.032;2022-11-09T02:34:17;17.92;;;12.18;;
56712;SDS011;42589;45.536;9.032;2022-11-09T02:37:28;15.57;;;11.43;;
56712;SDS011;42589;45.536;9.032;2022-11-09T02:40:30;15.52;;;11.57;;
56712;SDS011;42589;45.536;9.032;2022-11-09T02:43:36;17.92;;;12.35;;
56712;SDS011;42589;45.536;9.032;2022-11-09T02:46:36;16.02;;;11.40;;
56712;SDS011;42589;45.536;9.032;2022-11-09T02:49:37;17.65;;;12.15;;
56712;SDS011;42589;45.536;9.032;2022-11-09T02:52:47;19.40;;;12.20;;
56712;SDS011;42589;45.536;9.032;2022-11-09T02:55:47;16.60;;;11.95;;
56712;SDS011;42589;45.536;9.032;2022-11-09T02:58:49;19.08;;;12.48;;
56712;SDS011;42589;45.536;9.032;2022-11-09T03:01:50;18.02;;;13.05;;
56712;SDS011;42589;45.536;9.032;2022-11-09T03:04:51;19.50;;;12.25;;
56712;SDS011;42589;45.536;9.032;2022-11-09T03:07:52;17.75;;;12.15;;
56712;SDS011;42589;45.536;9.032;2022-11-09T03:10:53;18.27;;;12.45;;
56712;SDS011;42589;45.536;9.032;2022-11-09T03:13:54;16.27;;;11.73;;
56712;SDS011;42589;45.536;9.032;2022-11-09T03:16:55;19.50;;;12.40;;
56712;SDS011;42589;45.536;9.032;2022-11-09T03:19:55;18.67;;;12.40;;
56712;SDS011;42589;45.536;9.032;2022-11-09T03:22:57;16.88;;;12.65;;
56712;SDS011;42589;45.536;9.032;2022-11-09T03:25:58;18.08;;;13.70;;
56712;SDS011;42589;45.536;9.032;2022-11-09T03:28:59;17.55;;;12.73;;
56712;SDS011;42589;45.536;9.032;2022-11-09T03:32:00;19.15;;;12.55;;
56712;SDS011;42589;45.536;9.032;2022-11-09T03:35:00;17.42;;;12.35;;
56712;SDS011;42589;45.536;9.032;2022-11-09T03:38:01;17.60;;;12.43;;
56712;SDS011;42589;45.536;9.032;2022-11-09T03:41:02;19.25;;;13.05;;
56712;SDS011;42589;45.536;9.032;2022-11-09T03:44:03;16.65;;;11.85;;
56712;SDS011;42589;45.536;9.032;2022-11-09T03:47:04;18.45;;;11.95;;
56712;SDS011;42589;45.536;9.032;2022-11-09T03:50:04;16.67;;;11.90;;
56712;SDS011;42589;45.536;9.032;2022-11-09T03:53:06;15.95;;;11.93;;
56712;SDS011;42589;45.536;9.032;2022-11-09T03:56:09;13.93;;;11.90;;
56712;SDS011;42589;45.536;9.032;2022-11-09T03:59:10;20.15;;;11.98;;
56712;SDS011;42589;45.536;9.032;2022-11-09T04:02:11;16.13;;;11.85;;
56712;SDS011;42589;45.536;9.032;2022-11-09T04:05:13;17.75;;;12.65;;
56712;SDS011;42589;45.536;9.032;2022-11-09T04:08:14;15.45;;;12.05;;
56712;SDS011;42589;45.536;9.032;2022-11-09T04:11:15;16.80;;;12.25;;
56712;SDS011;42589;45.536;9.032;2022-11-09T04:14:15;18.13;;;12.30;;
56712;SDS011;42589;45.536;9.032;2022-11-09T04:17:16;18.90;;;12.20;;
56712;SDS011;42589;45.536;9.032;2022-11-09T04:20:17;16.42;;;12.32;;
56712;SDS011;42589;45.536;9.032;2022-11-09T04:23:17;15.50;;;12.73;;
56712;SDS011;42589;45.536;9.032;2022-11-09T04:26:18;16.45;;;11.88;;
56712;SDS011;42589;45.536;9.032;2022-11-09T04:29:20;16.90;;;11.60;;
56712;SDS011;42589;45.536;9.032;2022-11-09T04:32:20;17.10;;;12.20;;
56712;SDS011;42589;45.536;9.032;2022-11-09T04:35:21;16.25;;;11.25;;
56712;SDS011;42589;45.536;9.032;2022-11-09T04:38:22;15.30;;;11.93;;
56712;SDS011;42589;45.536;9.032;2022-11-09T04:41:23;16.33;;;11.70;;
56712;SDS011;42589;45.536;9.032;2022-11-09T04:44:24;17.38;;;12.27;;
56712;SDS011;42589;45.536;9.032;2022-11-09T04:47:24;15.82;;;11.88;;
56712;SDS011;42589;45.536;9.032;2022-11-09T04:50:26;18.33;;;12.38;;
56712;SDS011;42589;45.536;9.032;2022-11-09T04:53:28;17.90;;;12.20;;
56712;SDS011;42589;45.536;9.032;2022-11-09T04:56:29;16.63;;;11.63;;
56712;SDS011;42589;45.536;9.032;2022-11-09T04:59:29;16.67;;;11.40;;
56712;SDS011;42589;45.536;9.032;2022-11-09T05:02:30;20.13;;;11.88;;
56712;SDS011;42589;45.536;9.032;2022-11-09T05:05:32;18.45;;;11.60;;
56712;SDS011;42589;45.536;9.032;2022-11-09T05:08:32;17.15;;;12.07;;
56712;SDS011;42589;45.536;9.032;2022-11-09T05:11:34;17.13;;;13.10;;
56712;SDS011;42589;45.536;9.032;2022-11-09T05:14:35;16.05;;;11.82;;
56712;SDS011;42589;45.536;9.032;2022-11-09T05:17:36;15.60;;;11.85;;
56712;SDS011;42589;45.536;9.032;2022-11-09T05:20:37;15.88;;;11.98;;
56712;SDS011;42589;45.536;9.032;2022-11-09T05:23:38;21.67;;;13.20;;
56712;SDS011;42589;45.536;9.032;2022-11-09T05:26:57;19.15;;;13.63;;
56712;SDS011;42589;45.536;9.032;2022-11-09T05:29:58;20.05;;;14.52;;
56712;SDS011;42589;45.536;9.032;2022-11-09T05:32:59;21.52;;;15.60;;
56712;SDS011;42589;45.536;9.032;2022-11-09T05:35:59;21.40;;;14.43;;
56712;SDS011;42589;45.536;9.032;2022-11-09T05:39:00;21.45;;;14.95;;
56712;SDS011;42589;45.536;9.032;2022-11-09T05:42:02;22.02;;;14.50;;
56712;SDS011;42589;45.536;9.032;2022-11-09T05:45:03;21.73;;;16.05;;
56712;SDS011;42589;45.536;9.032;2022-11-09T05:48:04;23.92;;;17.25;;
56712;SDS011;42589;45.536;9.032;2022-11-09T05:51:07;24.42;;;17.02;;
56712;SDS011;42589;45.536;9.032;2022-11-09T05:54:11;26.70;;;19.05;;
56712;SDS011;42589;45.536;9.032;2022-11-09T05:57:11;24.05;;;18.30;;
56712;SDS011;42589;45.536;9.032;2022-11-09T06:00:12;24.38;;;18.63;;
56712;SDS011;42589;45.536;9.032;2022-11-09T06:03:13;26.05;;;19.30;;
56712;SDS011;42589;45.536;9.032;2022-11-09T06:06:14;26.00;;;18.98;;
56712;SDS011;42589;45.536;9.032;2022-11-09T06:09:15;24.98;;;18.70;;
56712;SDS011;42589;45.536;9.032;2022-11-09T06:12:18;24.77;;;18.98;;
56712;SDS011;42589;45.536;9.032;2022-11-09T06:15:18;29.00;;;21.10;;
56712;SDS011;42589;45.536;9.032;2022-11-09T06:18:19;27.58;;;20.23;;
56712;SDS011;42589;45.536;9.032;2022-11-09T06:21:20;28.33;;;20.48;;
56712;SDS011;42589;45.536;9.032;2022-11-09T06:24:21;26.52;;;20.60;;
56712;SDS011;42589;45.536;9.032;2022-11-09T06:27:21;26.35;;;21.00;;
56712;SDS011;42589;45.536;9.032;2022-11-09T06:30:25;28.27;;;22.70;;
56712;SDS011;42589;45.536;9.032;2022-11-09T06:33:26;33.10;;;22.33;;
56712;SDS011;42589;45.536;9.032;2022-11-09T06:36:27;26.67;;;21.80;;
56712;SDS011;42589;45.536;9.032;2022-11-09T06:39:28;31.13;;;22.75;;
56712;SDS011;42589;45.536;9.032;2022-11-09T06:42:29;30.58;;;23.15;;
56712;SDS011;42589;45.536;9.032;2022-11-09T06:45:30;26.95;;;21.83;;
56712;SDS011;42589;45.536;9.032;2022-11-09T06:48:31;31.15;;;22.85;;
56712;SDS011;42589;45.536;9.032;2022-11-09T06:51:32;31.23;;;23.40;;
56712;SDS011;42589;45.536;9.032;2022-11-09T06:54:33;29.27;;;22.70;;
56712;SDS011;42589;45.536;9.032;2022-11-09T06:57:33;32.40;;;24.13;;
56712;SDS011;42589;45.536;9.032;2022-11-09T07:00:34;32.05;;;23.45;;
56712;SDS011;42589;45.536;9.032;2022-11-09T07:03:35;35.83;;;24.95;;
56712;SDS011;42589;45.536;9.032;2022-11-09T07:06:38;31.83;;;24.52;;
56712;SDS011;42589;45.536;9.032;2022-11-09T07:09:39;32.33;;;24.67;;
56712;SDS011;42589;45.536;9.032;2022-11-09T07:12:39;37.25;;;25.10;;
56712;SDS011;42589;45.536;9.032;2022-11-09T07:15:40;35.60;;;24.80;;
56712;SDS011;42589;45.536;9.032;2022-11-09T07:18:44;33.55;;;25.08;;
56712;SDS011;42589;45.536;9.032;2022-11-09T07:21:44;32.45;;;24.77;;
56712;SDS011;42589;45.536;9.032;2022-11-09T07:24:48;34.10;;;25.70;;
56712;SDS011;42589;45.536;9.032;2022-11-09T07:27:49;37.33;;;26.52;;
56712;SDS011;42589;45.536;9.032;2022-11-09T07:30:50;33.90;;;26.33;;
56712;SDS011;42589;45.536;9.032;2022-11-09T07:33:51;33.78;;;26.48;;
56712;SDS011;42589;45.536;9.032;2022-11-09T07:36:52;34.20;;;26.42;;
56712;SDS011;42589;45.536;9.032;2022-11-09T07:39:53;34.28;;;25.73;;
56712;SDS011;42589;45.536;9.032;2022-11-09T07:43:00;33.50;;;24.92;;
56712;SDS011;42589;45.536;9.032;2022-11-09T07:46:02;35.50;;;25.75;;
56712;SDS011;42589;45.536;9.032;2022-11-09T07:49:02;37.42;;;25.55;;
56712;SDS011;42589;45.536;9.032;2022-11-09T07:52:04;33.60;;;25.50;;
56712;SDS011;42589;45.536;9.032;2022-11-09T07:55:05;33.53;;;25.38;;
56712;SDS011;42589;45.536;9.032;2022-11-09T07:58:07;33.42;;;25.42;;
56712;SDS011;42589;45.536;9.032;2022-11-09T08:01:10;33.97;;;25.05;;
56712;SDS011;42589;45.536;9.032;2022-11-09T08:04:11;36.77;;;25.13;;
56712;SDS011;42589;45.536;9.032;2022-11-09T08:07:11;32.17;;;25.95;;
56712;SDS011;42589;45.536;9.032;2022-11-09T08:10:13;33.13;;;26.08;;
56712;SDS011;42589;45.536;9.032;2022-11-09T08:13:14;36.40;;;26.67;;
56712;SDS011;42589;45.536;9.032;2022-11-09T08:16:15;37.45;;;28.65;;
56712;SDS011;42589;45.536;9.032;2022-11-09T08:19:16;36.67;;;27.15;;
56712;SDS011;42589;45.536;9.032;2022-11-09T08:22:17;37.40;;;26.92;;
56712;SDS011;42589;45.536;9.032;2022-11-09T08:25:17;36.38;;;27.45;;
56712;SDS011;42589;45.536;9.032;2022-11-09T08:28:18;44.15;;;27.77;;
56712;SDS011;42589;45.536;9.032;2022-11-09T08:31:19;36.60;;;26.80;;
56712;SDS011;42589;45.536;9.032;2022-11-09T08:34:19;36.03;;;26.63;;
56712;SDS011;42589;45.536;9.032;2022-11-09T08:37:20;36.55;;;27.63;;
56712;SDS011;42589;45.536;9.032;2022-11-09T08:40:22;40.25;;;28.40;;
56712;SDS011;42589;45.536;9.032;2022-11-09T08:43:23;36.40;;;27.67;;
56712;SDS011;42589;45.536;9.032;2022-11-09T08:46:25;37.28;;;27.40;;
56712;SDS011;42589;45.536;9.032;2022-11-09T08:49:25;38.78;;;27.95;;
56712;SDS011;42589;45.536;9.032;2022-11-09T08:52:26;34.33;;;28.05;;
56712;SDS011;42589;45.536;9.032;2022-11-09T08:55:27;36.08;;;27.60;;
56712;SDS011;42589;45.536;9.032;2022-11-09T08:58:29;35.75;;;28.08;;
56712;SDS011;42589;45.536;9.032;2022-11-09T09:01:30;38.35;;;28.77;;
56712;SDS011;42589;45.536;9.032;2022-11-09T09:04:30;39.92;;;27.13;;
56712;SDS011;42589;45.536;9.032;2022-11-09T09:07:31;38.25;;;28.02;;
56712;SDS011;42589;45.536;9.032;2022-11-09T09:10:33;40.53;;;28.90;;
56712;SDS011;42589;45.536;9.032;2022-11-09T09:13:37;39.83;;;28.00;;
56712;SDS011;42589;45.536;9.032;2022-11-09T09:16:39;39.25;;;28.33;;
56712;SDS011;42589;45.536;9.032;2022-11-09T09:19:40;39.95;;;30.20;;
56712;SDS011;42589;45.536;9.032;2022-11-09T09:22:40;41.42;;;29.55;;
56712;SDS011;42589;45.536;9.032;2022-11-09T09:25:42;38.63;;;29.52;;
56712;SDS011;42589;45.536;9.032;2022-11-09T09:28:42;45.55;;;30.90;;
56712;SDS011;42589;45.536;9.032;2022-11-09T09:31:43;40.03;;;29.85;;
56712;SDS011;42589;45.536;9.032;2022-11-09T09:34:43;41.83;;;30.08;;
56712;SDS011;42589;45.536;9.032;2022-11-09T09:37:44;38.28;;;28.10;;
56712;SDS011;42589;45.536;9.032;2022-11-09T09:41:20;54.88;;;29.65;;
56712;SDS011;42589;45.536;9.032;2022-11-09T09:50:46;46.03;;;29.48;;
56712;SDS011;42589;45.536;9.032;2022-11-09T09:53:48;38.20;;;27.05;;
56712;SDS011;42589;45.536;9.032;2022-11-09T09:56:53;36.58;;;28.33;;
56712;SDS011;42589;45.536;9.032;2022-11-09T09:59:56;36.50;;;27.25;;
56712;SDS011;42589;45.536;9.032;2022-11-09T10:02:58;38.63;;;27.63;;
56712;SDS011;42589;45.536;9.032;2022-11-09T10:06:18;34.55;;;27.20;;
56712;SDS011;42589;45.536;9.032;2022-11-09T10:09:24;34.05;;;27.58;;
56712;SDS011;42589;45.536;9.032;2022-11-09T10:15:51;38.22;;;28.85;;
56712;SDS011;42589;45.536;9.032;2022-11-09T10:25:19;39.28;;;28.65;;
56712;SDS011;42589;45.536;9.032;2022-11-09T10:28:21;42.67;;;28.70;;
56712;SDS011;42589;45.536;9.032;2022-11-09T10:31:25;40.42;;;29.65;;
56712;SDS011;42589;45.536;9.032;2022-11-09T10:34:34;35.78;;;27.95;;
56712;SDS011;42589;45.536;9.032;2022-11-09T10:37:38;30.38;;;25.33;;
56712;SDS011;42589;45.536;9.032;2022-11-09T10:40:40;34.33;;;26.75;;
56712;SDS011;42589;45.536;9.032;2022-11-09T10:43:42;35.65;;;28.17;;
56712;SDS011;42589;45.536;9.032;2022-11-09T10:47:02;33.60;;;28.17;;
56712;SDS011;42589;45.536;9.032;2022-11-09T10:50:12;37.20;;;28.20;;
56712;SDS011;42589;45.536;9.032;2022-11-09T10:53:19;38.42;;;27.45;;
56712;SDS011;42589;45.536;9.032;2022-11-09T10:56:20;35.38;;;27.77;;
56712;SDS011;42589;45.536;9.032;2022-11-09T10:59:34;42.95;;;30.67;;
56712;SDS011;42589;45.536;9.032;2022-11-09T11:05:36;40.72;;;28.95;;
56712;SDS011;42589;45.536;9.032;2022-11-09T11:08:40;35.88;;;27.65;;
56712;SDS011;42589;45.536;9.032;2022-11-09T11:11:40;35.75;;;28.02;;
56712;SDS011;42589;45.536;9.032;2022-11-09T11:14:41;37.13;;;28.67;;
56712;SDS011;42589;45.536;9.032;2022-11-09T11:17:43;39.45;;;29.48;;
56712;SDS011;42589;45.536;9.032;2022-11-09T11:20:44;36.33;;;27.83;;
56712;SDS011;42589;45.536;9.032;2022-11-09T11:24:32;38.75;;;28.60;;
56712;SDS011;42589;45.536;9.032;2022-11-09T11:27:16;37.22;;;29.15;;
56712;SDS011;42589;45.536;9.032;2022-11-09T11:30:27;36.00;;;28.40;;
56712;SDS011;42589;45.536;9.032;2022-11-09T11:33:28;36.20;;;29.73;;
56712;SDS011;42589;45.536;9.032;2022-11-09T11:36:44;39.92;;;29.65;;
56712;SDS011;42589;45.536;9.032;2022-11-09T11:39:59;39.78;;;29.98;;
56712;SDS011;42589;45.536;9.032;2022-11-09T11:43:10;46.30;;;33.33;;
56712;SDS011;42589;45.536;9.032;2022-11-09T11:58:51;50.42;;;37.15;;
56712;SDS011;42589;45.536;9.032;2022-11-09T12:02:03;50.15;;;36.40;;
56712;SDS011;42589;45.536;9.032;2022-11-09T12:08:43;55.28;;;39.30;;
56712;SDS011;42589;45.536;9.032;2022-11-09T12:24:18;53.25;;;39.10;;
56712;SDS011;42589;45.536;9.032;2022-11-09T12:36:46;57.25;;;39.95;;
56712;SDS011;42589;45.536;9.032;2022-11-09T12:39:50;54.50;;;40.08;;
56712;SDS011;42589;45.536;9.032;2022-11-09T12:45:55;53.28;;;39.10;;
56712;SDS011;42589;45.536;9.032;2022-11-09T12:48:58;52.78;;;39.25;;
56712;SDS011;42589;45.536;9.032;2022-11-09T12:52:01;57.58;;;39.42;;
56712;SDS011;42589;45.536;9.032;2022-11-09T12:55:02;54.50;;;40.70;;
56712;SDS011;42589;45.536;9.032;2022-11-09T12:58:03;57.60;;;41.92;;
56712;SDS011;42589;45.536;9.032;2022-11-09T13:01:04;55.00;;;39.95;;
56712;SDS011;42589;45.536;9.032;2022-11-09T13:04:06;54.85;;;40.40;;
56712;SDS011;42589;45.536;9.032;2022-11-09T13:10:32;57.20;;;40.88;;
56712;SDS011;42589;45.536;9.032;2022-11-09T13:13:33;57.72;;;41.72;;
56712;SDS011;42589;45.536;9.032;2022-11-09T13:16:34;59.53;;;41.00;;
56712;SDS011;42589;45.536;9.032;2022-11-09T13:28:43;52.50;;;38.85;;
56712;SDS011;42589;45.536;9.032;2022-11-09T13:32:00;52.63;;;39.03;;
56712;SDS011;42589;45.536;9.032;2022-11-09T13:35:01;55.40;;;39.72;;
56712;SDS011;42589;45.536;9.032;2022-11-09T13:38:12;56.65;;;40.97;;
56712;SDS011;42589;45.536;9.032;2022-11-09T13:44:29;54.95;;;39.35;;
56712;SDS011;42589;45.536;9.032;2022-11-09T13:47:33;53.35;;;38.22;;
56712;SDS011;42589;45.536;9.032;2022-11-09T13:50:34;55.33;;;38.47;;
56712;SDS011;42589;45.536;9.032;2022-11-09T13:56:36;56.65;;;39.30;;
56712;SDS011;42589;45.536;9.032;2022-11-09T13:59:46;55.70;;;39.40;;
56712;SDS011;42589;45.536;9.032;2022-11-09T14:02:58;56.47;;;39.97;;
56712;SDS011;42589;45.536;9.032;2022-11-09T14:05:59;54.83;;;39.17;;
56712;SDS011;42589;45.536;9.032;2022-11-09T14:09:01;54.78;;;38.95;;
56712;SDS011;42589;45.536;9.032;2022-11-09T14:12:26;52.08;;;36.83;;
56712;SDS011;42589;45.536;9.032;2022-11-09T14:18:56;49.78;;;37.22;;
56712;SDS011;42589;45.536;9.032;2022-11-09T14:21:59;52.53;;;38.38;;
56712;SDS011;42589;45.536;9.032;2022-11-09T14:25:13;57.75;;;40.65;;
56712;SDS011;42589;45.536;9.032;2022-11-09T14:28:19;52.38;;;39.03;;
56712;SDS011;42589;45.536;9.032;2022-11-09T14:31:24;54.90;;;40.58;;
56712;SDS011;42589;45.536;9.032;2022-11-09T14:34:24;54.60;;;39.00;;
56712;SDS011;42589;45.536;9.032;2022-11-09T14:37:25;54.47;;;39.38;;
56712;SDS011;42589;45.536;9.032;2022-11-09T14:40:27;59.15;;;40.85;;
56712;SDS011;42589;45.536;9.032;2022-11-09T14:43:32;55.75;;;38.67;;
56712;SDS011;42589;45.536;9.032;2022-11-09T14:46:35;58.10;;;41.35;;
56712;SDS011;42589;45.536;9.032;2022-11-09T14:49:36;56.63;;;37.60;;
56712;SDS011;42589;45.536;9.032;2022-11-09T14:52:36;55.67;;;37.72;;
56712;SDS011;42589;45.536;9.032;2022-11-09T14:55:37;50.63;;;36.75;;
56712;SDS011;42589;45.536;9.032;2022-11-09T14:58:40;50.80;;;36.05;;
56712;SDS011;42589;45.536;9.032;2022-11-09T15:05:03;39.45;;;25.30;;
56712;SDS011;42589;45.536;9.032;2022-11-09T15:08:04;32.83;;;22.33;;
56712;SDS011;42589;45.536;9.032;2022-11-09T15:11:06;28.35;;;20.90;;
56712;SDS011;42589;45.536;9.032;2022-11-09T15:23:22;36.55;;;25.65;;
56712;SDS011;42589;45.536;9.032;2022-11-09T15:26:34;39.92;;;26.83;;
56712;SDS011;42589;45.536;9.032;2022-11-09T15:32:37;41.85;;;28.50;;
56712;SDS011;42589;45.536;9.032;2022-11-09T15:35:46;42.53;;;29.13;;
56712;SDS011;42589;45.536;9.032;2022-11-09T15:38:59;40.22;;;27.98;;
56712;SDS011;42589;45.536;9.032;2022-11-09T15:42:03;40.72;;;28.55;;
56712;SDS011;42589;45.536;9.032;2022-11-09T15:45:04;37.17;;;25.92;;
56712;SDS011;42589;45.536;9.032;2022-11-09T15:48:07;38.90;;;29.02;;
56712;SDS011;42589;45.536;9.032;2022-11-09T15:51:08;39.80;;;28.15;;
56712;SDS011;42589;45.536;9.032;2022-11-09T15:54:09;36.55;;;27.58;;
56712;SDS011;42589;45.536;9.032;2022-11-09T15:57:13;38.38;;;27.30;;
56712;SDS011;42589;45.536;9.032;2022-11-09T16:00:15;40.35;;;26.83;;
56712;SDS011;42589;45.536;9.032;2022-11-09T16:03:16;35.22;;;24.65;;
56712;SDS011;42589;45.536;9.032;2022-11-09T16:06:17;34.50;;;24.42;;
56712;SDS011;42589;45.536;9.032;2022-11-09T16:12:22;34.05;;;24.48;;
56712;SDS011;42589;45.536;9.032;2022-11-09T16:15:24;33.72;;;24.17;;
56712;SDS011;42589;45.536;9.032;2022-11-09T16:18:25;34.80;;;24.65;;
56712;SDS011;42589;45.536;9.032;2022-11-09T16:21:26;35.40;;;24.30;;
56712;SDS011;42589;45.536;9.032;2022-11-09T16:24:26;32.83;;;24.33;;
56712;SDS011;42589;45.536;9.032;2022-11-09T16:27:27;34.38;;;23.65;;
56712;SDS011;42589;45.536;9.032;2022-11-09T16:30:27;34.83;;;24.17;;
56712;SDS011;42589;45.536;9.032;2022-11-09T16:33:28;33.75;;;25.05;;
56712;SDS011;42589;45.536;9.032;2022-11-09T16:36:29;32.20;;;25.65;;
56712;SDS011;42589;45.536;9.032;2022-11-09T16:39:31;32.70;;;25.33;;
56712;SDS011;42589;45.536;9.032;2022-11-09T16:42:33;34.00;;;24.33;;
56712;SDS011;42589;45.536;9.032;2022-11-09T16:45:33;39.67;;;26.13;;
56712;SDS011;42589;45.536;9.032;2022-11-09T16:48:35;33.15;;;24.77;;
56712;SDS011;42589;45.536;9.032;2022-11-09T16:51:36;36.22;;;26.77;;
56712;SDS011;42589;45.536;9.032;2022-11-09T16:54:36;38.00;;;26.73;;
56712;SDS011;42589;45.536;9.032;2022-11-09T16:57:37;40.33;;;27.60;;
56712;SDS011;42589;45.536;9.032;2022-11-09T17:00:42;37.80;;;26.92;;
56712;SDS011;42589;45.536;9.032;2022-11-09T17:03:43;35.38;;;27.20;;
56712;SDS011;42589;45.536;9.032;2022-11-09T17:06:44;41.10;;;28.23;;
56712;SDS011;42589;45.536;9.032;2022-11-09T17:09:45;43.85;;;30.33;;
56712;SDS011;42589;45.536;9.032;2022-11-09T17:12:45;43.63;;;31.92;;
56712;SDS011;42589;45.536;9.032;2022-11-09T17:15:47;44.15;;;31.52;;
56712;SDS011;42589;45.536;9.032;2022-11-09T17:18:50;40.15;;;28.05;;
56712;SDS011;42589;45.536;9.032;2022-11-09T17:21:51;38.13;;;28.05;;
56712;SDS011;42589;45.536;9.032;2022-11-09T17:24:51;40.42;;;29.13;;
56712;SDS011;42589;45.536;9.032;2022-11-09T17:27:52;39.00;;;30.25;;
56712;SDS011;42589;45.536;9.032;2022-11-09T17:30:53;39.40;;;29.20;;
56712;SDS011;42589;45.536;9.032;2022-11-09T17:33:55;36.70;;;27.23;;
56712;SDS011;42589;45.536;9.032;2022-11-09T17:36:55;38.63;;;27.85;;
56712;SDS011;42589;45.536;9.032;2022-11-09T17:39:56;36.00;;;27.42;;
56712;SDS011;42589;45.536;9.032;2022-11-09T17:42:56;40.45;;;28.80;;
56712;SDS011;42589;45.536;9.032;2022-11-09T17:46:04;39.90;;;28.50;;
56712;SDS011;42589;45.536;9.032;2022-11-09T17:49:05;42.15;;;29.35;;
56712;SDS011;42589;45.536;9.032;2022-11-09T17:52:05;39.72;;;28.65;;
56712;SDS011;42589;45.536;9.032;2022-11-09T17:55:06;39.38;;;28.85;;
56712;SDS011;42589;45.536;9.032;2022-11-09T17:58:07;38.08;;;28.35;;
56712;SDS011;42589;45.536;9.032;2022-11-09T18:01:11;39.67;;;28.25;;
56712;SDS011;42589;45.536;9.032;2022-11-09T18:04:12;39.72;;;26.95;;
56712;SDS011;42589;45.536;9.032;2022-11-09T18:07:13;38.08;;;27.73;;
56712;SDS011;42589;45.536;9.032;2022-11-09T18:10:15;38.80;;;29.20;;
56712;SDS011;42589;45.536;9.032;2022-11-09T18:13:16;43.92;;;30.50;;
56712;SDS011;42589;45.536;9.032;2022-11-09T18:16:18;41.30;;;28.98;;
56712;SDS011;42589;45.536;9.032;2022-11-09T18:19:19;38.22;;;29.23;;
56712;SDS011;42589;45.536;9.032;2022-11-09T18:22:20;43.35;;;31.13;;
56712;SDS011;42589;45.536;9.032;2022-11-09T18:25:21;46.42;;;32.25;;
56712;SDS011;42589;45.536;9.032;2022-11-09T18:28:21;47.33;;;31.55;;
56712;SDS011;42589;45.536;9.032;2022-11-09T18:31:22;47.42;;;31.55;;
56712;SDS011;42589;45.536;9.032;2022-11-09T18:34:22;45.53;;;32.75;;
56712;SDS011;42589;45.536;9.032;2022-11-09T18:37:23;41.38;;;31.27;;
56712;SDS011;42589;45.536;9.032;2022-11-09T18:40:24;43.45;;;32.10;;
56712;SDS011;42589;45.536;9.032;2022-11-09T18:43:25;44.60;;;33.08;;
56712;SDS011;42589;45.536;9.032;2022-11-09T18:46:26;47.20;;;33.72;;
56712;SDS011;42589;45.536;9.032;2022-11-09T18:49:29;49.90;;;34.53;;
56712;SDS011;42589;45.536;9.032;2022-11-09T18:52:31;45.75;;;34.80;;
56712;SDS011;42589;45.536;9.032;2022-11-09T18:55:32;53.20;;;35.88;;
56712;SDS011;42589;45.536;9.032;2022-11-09T18:58:33;47.45;;;35.92;;
56712;SDS011;42589;45.536;9.032;2022-11-09T19:01:34;47.90;;;35.78;;
56712;SDS011;42589;45.536;9.032;2022-11-09T19:04:34;46.00;;;34.85;;
56712;SDS011;42589;45.536;9.032;2022-11-09T19:07:35;50.67;;;38.20;;
56712;SDS011;42589;45.536;9.032;2022-11-09T19:10:37;47.45;;;35.72;;
56712;SDS011;42589;45.536;9.032;2022-11-09T19:13:37;52.42;;;37.55;;
56712;SDS011;42589;45.536;9.032;2022-11-09T19:16:38;51.70;;;37.58;;
56712;SDS011;42589;45.536;9.032;2022-11-09T19:19:39;51.30;;;37.20;;
56712;SDS011;42589;45.536;9.032;2022-11-09T19:22:40;51.03;;;36.47;;
56712;SDS011;42589;45.536;9.032;2022-11-09T19:25:41;52.53;;;37.65;;
56712;SDS011;42589;45.536;9.032;2022-11-09T19:28:46;54.35;;;39.10;;
56712;SDS011;42589;45.536;9.032;2022-11-09T19:31:46;53.58;;;38.72;;
56712;SDS011;42589;45.536;9.032;2022-11-09T19:34:47;60.78;;;41.03;;